Kaneohe Bay MCAS (Marion E. Carl Field) Airport Kaneohe US
ICAO: PHNG
IATA:
Category: Medium
Scheduled Services:

Elevation: 24 ft
TransAlt. 18000 ft.

Airport Communications:
APP/DEP:125
ATIS:28.45
CLNC DEL:29.47
CTAF:120.7
GND:38.28
PMSV METRO:34.46
PTD:30.72
TWR:120.7

PHNG Zoom In..

If you have problems with the map follow the link
https://www.worldairports.se/pages/airport.php?
ICAO=PHNG

Runways:

(A) RW 04 length 7771 ft width 200 ft
---- / hdg 41

(B) RW 22 length 7771 ft width 200 ft
---- / hdg 221

Location; PHNG
Day. 26 / Time. 22.57 Zulu
* Altimeter: 30.09
* Temperature: 26° c. 78.8°f.
* Wind from: 060° Speed 11 kn.
Dewpoint: 19° c.
Visibility: 10 Statute Miles.
Clouds: Scattered 2600 ft.
Clouds: Broken 3100 ft.

PHNG 262257Z 06011KT 10SM SCT026 BKN031 26/19 A3009 RMK AO2 SLP185 T02610194 $


Wind From 060°
Speed 11 kn.

 
 
jpsmedia worldairports.se 2020   terms of use